Rainworth, United Kingdom
Current Conditions -  °F | °C
As of 3:20 AM on Saturday 29 Nov 2014 (Local Time) from EGNX Reporting Station
Haze Haze  
Wind Chill: 44°   Ceiling: 300
Heat Index: 48°   Visibility: 1.2mi
Dew Point: 48°   Wind: 10mph
Humidity: 100%   Direction: 40°NE
Pressure: 29.77"   Gusts: NA
Location:  53.12°N, 1.12°W
Report Text: EGNX 290320Z 04009KT 2000 BR OVC003 09/09 Q1008
Loading
Personal Weather Stations






























Interactive Weather Map New forecast layout! Learn more

10-Day Weather Forecast

Advertisements
Track Severe Weather on mobile